sensor_id;sensor_type;location;lat;lon;timestamp;P1;durP1;ratioP1;P2;durP2;ratioP2
13933;SDS011;7039;52.168;9.866;2022-12-18T00:00:49;14.23;;;7.03;;
13933;SDS011;7039;52.168;9.866;2022-12-18T00:03:15;11.93;;;5.97;;
13933;SDS011;7039;52.168;9.866;2022-12-18T00:05:46;15.00;;;6.53;;
13933;SDS011;7039;52.168;9.866;2022-12-18T00:08:12;11.87;;;7.30;;
13933;SDS011;7039;52.168;9.866;2022-12-18T00:11:04;16.30;;;7.67;;
13933;SDS011;7039;52.168;9.866;2022-12-18T00:17:39;15.93;;;7.77;;
13933;SDS011;7039;52.168;9.866;2022-12-18T00:20:42;22.80;;;9.00;;
13933;SDS011;7039;52.168;9.866;2022-12-18T00:23:09;18.93;;;8.67;;
13933;SDS011;7039;52.168;9.866;2022-12-18T00:25:36;19.30;;;8.13;;
13933;SDS011;7039;52.168;9.866;2022-12-18T00:28:04;19.70;;;8.77;;
13933;SDS011;7039;52.168;9.866;2022-12-18T00:30:35;19.07;;;8.70;;
13933;SDS011;7039;52.168;9.866;2022-12-18T00:39:20;25.07;;;9.77;;
13933;SDS011;7039;52.168;9.866;2022-12-18T00:42:11;19.60;;;8.63;;
13933;SDS011;7039;52.168;9.866;2022-12-18T00:45:22;17.87;;;9.43;;
13933;SDS011;7039;52.168;9.866;2022-12-18T00:55:21;34.10;;;12.37;;
13933;SDS011;7039;52.168;9.866;2022-12-18T00:57:48;25.27;;;9.57;;
13933;SDS011;7039;52.168;9.866;2022-12-18T01:00:17;28.63;;;10.43;;
13933;SDS011;7039;52.168;9.866;2022-12-18T01:03:08;26.07;;;10.63;;
13933;SDS011;7039;52.168;9.866;2022-12-18T01:06:11;22.37;;;10.03;;
13933;SDS011;7039;52.168;9.866;2022-12-18T01:09:06;34.83;;;11.40;;
13933;SDS011;7039;52.168;9.866;2022-12-18T01:11:40;45.67;;;12.77;;
13933;SDS011;7039;52.168;9.866;2022-12-18T01:14:07;54.27;;;14.87;;
13933;SDS011;7039;52.168;9.866;2022-12-18T01:16:45;35.93;;;11.37;;
13933;SDS011;7039;52.168;9.866;2022-12-18T01:19:12;27.37;;;10.80;;
13933;SDS011;7039;52.168;9.866;2022-12-18T01:21:39;25.50;;;10.50;;
13933;SDS011;7039;52.168;9.866;2022-12-18T01:24:09;25.83;;;11.10;;
13933;SDS011;7039;52.168;9.866;2022-12-18T01:26:40;21.13;;;9.90;;
13933;SDS011;7039;52.168;9.866;2022-12-18T01:29:07;25.27;;;10.77;;
13933;SDS011;7039;52.168;9.866;2022-12-18T01:31:34;18.03;;;9.07;;
13933;SDS011;7039;52.168;9.866;2022-12-18T01:34:01;22.43;;;10.10;;
13933;SDS011;7039;52.168;9.866;2022-12-18T01:36:28;20.13;;;9.87;;
13933;SDS011;7039;52.168;9.866;2022-12-18T01:38:59;26.97;;;9.70;;
13933;SDS011;7039;52.168;9.866;2022-12-18T01:41:30;18.40;;;8.80;;
13933;SDS011;7039;52.168;9.866;2022-12-18T01:47:49;20.40;;;8.97;;
13933;SDS011;7039;52.168;9.866;2022-12-18T01:50:25;19.33;;;9.03;;
13933;SDS011;7039;52.168;9.866;2022-12-18T01:53:00;20.03;;;9.20;;
13933;SDS011;7039;52.168;9.866;2022-12-18T01:55:32;17.53;;;8.67;;
13933;SDS011;7039;52.168;9.866;2022-12-18T01:58:04;19.13;;;8.60;;
13933;SDS011;7039;52.168;9.866;2022-12-18T02:00:31;28.57;;;11.23;;
13933;SDS011;7039;52.168;9.866;2022-12-18T02:02:58;19.73;;;7.83;;
13933;SDS011;7039;52.168;9.866;2022-12-18T02:05:26;17.43;;;8.97;;
13933;SDS011;7039;52.168;9.866;2022-12-18T02:08:08;17.63;;;8.13;;
13933;SDS011;7039;52.168;9.866;2022-12-18T02:11:30;14.93;;;6.93;;
13933;SDS011;7039;52.168;9.866;2022-12-18T02:14:11;14.30;;;7.27;;
13933;SDS011;7039;52.168;9.866;2022-12-18T02:16:50;12.77;;;7.20;;
13933;SDS011;7039;52.168;9.866;2022-12-18T02:19:27;16.10;;;7.30;;
13933;SDS011;7039;52.168;9.866;2022-12-18T02:22:08;12.53;;;7.03;;
13933;SDS011;7039;52.168;9.866;2022-12-18T02:24:49;11.73;;;6.40;;
13933;SDS011;7039;52.168;9.866;2022-12-18T02:27:27;13.53;;;6.73;;
13933;SDS011;7039;52.168;9.866;2022-12-18T02:29:59;12.60;;;6.90;;
13933;SDS011;7039;52.168;9.866;2022-12-18T02:32:28;15.40;;;7.23;;
13933;SDS011;7039;52.168;9.866;2022-12-18T02:35:10;15.13;;;6.87;;
13933;SDS011;7039;52.168;9.866;2022-12-18T02:37:39;15.73;;;7.60;;
13933;SDS011;7039;52.168;9.866;2022-12-18T02:40:22;13.97;;;7.07;;
13933;SDS011;7039;52.168;9.866;2022-12-18T02:42:55;19.43;;;9.33;;
13933;SDS011;7039;52.168;9.866;2022-12-18T02:45:22;18.83;;;8.63;;
13933;SDS011;7039;52.168;9.866;2022-12-18T02:47:55;15.37;;;8.23;;
13933;SDS011;7039;52.168;9.866;2022-12-18T02:50:34;17.50;;;8.10;;
13933;SDS011;7039;52.168;9.866;2022-12-18T02:53:10;19.73;;;8.80;;
13933;SDS011;7039;52.168;9.866;2022-12-18T02:55:49;15.40;;;7.60;;
13933;SDS011;7039;52.168;9.866;2022-12-18T03:01:31;21.20;;;7.33;;
13933;SDS011;7039;52.168;9.866;2022-12-18T03:04:54;16.00;;;8.30;;
13933;SDS011;7039;52.168;9.866;2022-12-18T03:07:45;15.10;;;6.73;;
13933;SDS011;7039;52.168;9.866;2022-12-18T03:13:42;13.40;;;6.53;;
13933;SDS011;7039;52.168;9.866;2022-12-18T03:17:05;11.17;;;5.67;;
13933;SDS011;7039;52.168;9.866;2022-12-18T03:19:41;14.43;;;7.57;;
13933;SDS011;7039;52.168;9.866;2022-12-18T03:22:12;15.47;;;7.07;;
13933;SDS011;7039;52.168;9.866;2022-12-18T03:24:42;14.40;;;8.07;;
13933;SDS011;7039;52.168;9.866;2022-12-18T03:27:11;19.87;;;7.03;;
13933;SDS011;7039;52.168;9.866;2022-12-18T03:29:43;17.13;;;7.50;;
13933;SDS011;7039;52.168;9.866;2022-12-18T03:32:23;12.67;;;6.00;;
13933;SDS011;7039;52.168;9.866;2022-12-18T03:34:53;14.43;;;5.90;;
13933;SDS011;7039;52.168;9.866;2022-12-18T03:37:24;11.27;;;6.13;;
13933;SDS011;7039;52.168;9.866;2022-12-18T03:39:51;14.07;;;6.63;;
13933;SDS011;7039;52.168;9.866;2022-12-18T03:42:28;7.60;;;4.77;;
13933;SDS011;7039;52.168;9.866;2022-12-18T03:45:23;12.10;;;6.47;;
13933;SDS011;7039;52.168;9.866;2022-12-18T03:47:58;12.60;;;6.47;;
13933;SDS011;7039;52.168;9.866;2022-12-18T03:50:30;10.40;;;5.17;;
13933;SDS011;7039;52.168;9.866;2022-12-18T03:53:07;12.10;;;6.13;;
13933;SDS011;7039;52.168;9.866;2022-12-18T03:55:40;14.93;;;6.23;;
13933;SDS011;7039;52.168;9.866;2022-12-18T03:58:08;16.00;;;6.90;;
13933;SDS011;7039;52.168;9.866;2022-12-18T04:00:40;10.67;;;6.00;;
13933;SDS011;7039;52.168;9.866;2022-12-18T04:03:08;17.13;;;6.83;;
13933;SDS011;7039;52.168;9.866;2022-12-18T04:05:46;9.30;;;4.97;;
13933;SDS011;7039;52.168;9.866;2022-12-18T04:08:16;8.20;;;4.80;;
13933;SDS011;7039;52.168;9.866;2022-12-18T04:10:53;8.13;;;4.93;;
13933;SDS011;7039;52.168;9.866;2022-12-18T04:13:22;14.53;;;5.10;;
13933;SDS011;7039;52.168;9.866;2022-12-18T04:15:52;9.77;;;4.73;;
13933;SDS011;7039;52.168;9.866;2022-12-18T04:18:19;9.90;;;5.93;;
13933;SDS011;7039;52.168;9.866;2022-12-18T04:20:55;17.53;;;4.87;;
13933;SDS011;7039;52.168;9.866;2022-12-18T04:23:29;8.20;;;4.40;;
13933;SDS011;7039;52.168;9.866;2022-12-18T04:25:56;12.40;;;5.43;;
13933;SDS011;7039;52.168;9.866;2022-12-18T04:28:22;12.80;;;6.37;;
13933;SDS011;7039;52.168;9.866;2022-12-18T04:30:49;12.90;;;6.20;;
13933;SDS011;7039;52.168;9.866;2022-12-18T04:33:17;13.17;;;6.33;;
13933;SDS011;7039;52.168;9.866;2022-12-18T04:35:45;9.70;;;5.30;;
13933;SDS011;7039;52.168;9.866;2022-12-18T04:38:12;11.50;;;6.13;;
13933;SDS011;7039;52.168;9.866;2022-12-18T04:40:39;10.73;;;6.10;;
13933;SDS011;7039;52.168;9.866;2022-12-18T04:43:08;11.87;;;6.07;;
13933;SDS011;7039;52.168;9.866;2022-12-18T04:45:38;15.40;;;6.17;;
13933;SDS011;7039;52.168;9.866;2022-12-18T04:48:24;6.93;;;4.10;;
13933;SDS011;7039;52.168;9.866;2022-12-18T04:50:53;12.57;;;5.70;;
13933;SDS011;7039;52.168;9.866;2022-12-18T04:53:20;11.67;;;5.60;;
13933;SDS011;7039;52.168;9.866;2022-12-18T04:55:47;6.80;;;4.10;;
13933;SDS011;7039;52.168;9.866;2022-12-18T04:58:16;13.27;;;6.00;;
13933;SDS011;7039;52.168;9.866;2022-12-18T05:00:45;11.00;;;5.47;;
13933;SDS011;7039;52.168;9.866;2022-12-18T05:03:12;11.83;;;5.47;;
13933;SDS011;7039;52.168;9.866;2022-12-18T05:05:40;11.90;;;5.60;;
13933;SDS011;7039;52.168;9.866;2022-12-18T05:08:07;9.77;;;5.83;;
13933;SDS011;7039;52.168;9.866;2022-12-18T05:10:33;11.27;;;5.00;;
13933;SDS011;7039;52.168;9.866;2022-12-18T05:13:00;11.93;;;5.93;;
13933;SDS011;7039;52.168;9.866;2022-12-18T05:15:28;12.10;;;5.83;;
13933;SDS011;7039;52.168;9.866;2022-12-18T05:17:55;10.50;;;5.97;;
13933;SDS011;7039;52.168;9.866;2022-12-18T05:20:22;9.97;;;5.50;;
13933;SDS011;7039;52.168;9.866;2022-12-18T05:22:51;12.87;;;5.93;;
13933;SDS011;7039;52.168;9.866;2022-12-18T05:25:18;10.80;;;5.20;;
13933;SDS011;7039;52.168;9.866;2022-12-18T05:27:45;9.80;;;5.80;;
13933;SDS011;7039;52.168;9.866;2022-12-18T05:30:15;11.77;;;5.70;;
13933;SDS011;7039;52.168;9.866;2022-12-18T05:32:48;13.10;;;5.43;;
13933;SDS011;7039;52.168;9.866;2022-12-18T05:35:14;9.70;;;5.53;;
13933;SDS011;7039;52.168;9.866;2022-12-18T05:37:41;10.43;;;5.63;;
13933;SDS011;7039;52.168;9.866;2022-12-18T05:40:10;12.33;;;5.53;;
13933;SDS011;7039;52.168;9.866;2022-12-18T05:42:37;11.23;;;5.93;;
13933;SDS011;7039;52.168;9.866;2022-12-18T05:45:05;9.93;;;5.47;;
13933;SDS011;7039;52.168;9.866;2022-12-18T05:47:32;13.87;;;5.47;;
13933;SDS011;7039;52.168;9.866;2022-12-18T05:49:59;11.57;;;5.30;;
13933;SDS011;7039;52.168;9.866;2022-12-18T05:52:25;9.63;;;5.80;;
13933;SDS011;7039;52.168;9.866;2022-12-18T05:54:52;9.97;;;4.93;;
13933;SDS011;7039;52.168;9.866;2022-12-18T05:57:20;11.60;;;5.00;;
13933;SDS011;7039;52.168;9.866;2022-12-18T05:59:47;10.33;;;6.13;;
13933;SDS011;7039;52.168;9.866;2022-12-18T06:02:14;6.50;;;4.37;;
13933;SDS011;7039;52.168;9.866;2022-12-18T06:04:46;19.70;;;6.03;;
13933;SDS011;7039;52.168;9.866;2022-12-18T06:07:13;14.87;;;6.87;;
13933;SDS011;7039;52.168;9.866;2022-12-18T06:09:42;10.63;;;6.30;;
13933;SDS011;7039;52.168;9.866;2022-12-18T06:12:09;7.30;;;4.37;;
13933;SDS011;7039;52.168;9.866;2022-12-18T06:14:38;10.63;;;5.13;;
13933;SDS011;7039;52.168;9.866;2022-12-18T06:17:05;6.63;;;4.63;;
13933;SDS011;7039;52.168;9.866;2022-12-18T06:19:32;7.97;;;4.37;;
13933;SDS011;7039;52.168;9.866;2022-12-18T06:21:58;7.03;;;3.30;;
13933;SDS011;7039;52.168;9.866;2022-12-18T06:24:26;5.53;;;3.60;;
13933;SDS011;7039;52.168;9.866;2022-12-18T06:26:52;5.73;;;3.23;;
13933;SDS011;7039;52.168;9.866;2022-12-18T06:29:19;7.77;;;4.03;;
13933;SDS011;7039;52.168;9.866;2022-12-18T06:31:50;7.03;;;4.27;;
13933;SDS011;7039;52.168;9.866;2022-12-18T06:34:17;6.03;;;4.00;;
13933;SDS011;7039;52.168;9.866;2022-12-18T06:36:44;10.37;;;5.33;;
13933;SDS011;7039;52.168;9.866;2022-12-18T06:39:11;14.13;;;4.93;;
13933;SDS011;7039;52.168;9.866;2022-12-18T06:41:38;8.73;;;4.60;;
13933;SDS011;7039;52.168;9.866;2022-12-18T06:44:08;5.50;;;3.67;;
13933;SDS011;7039;52.168;9.866;2022-12-18T06:46:34;8.57;;;4.40;;
13933;SDS011;7039;52.168;9.866;2022-12-18T06:49:06;7.27;;;4.73;;
13933;SDS011;7039;52.168;9.866;2022-12-18T06:51:34;8.03;;;4.70;;
13933;SDS011;7039;52.168;9.866;2022-12-18T06:54:04;9.27;;;4.80;;
13933;SDS011;7039;52.168;9.866;2022-12-18T06:56:31;9.97;;;5.00;;
13933;SDS011;7039;52.168;9.866;2022-12-18T06:58:58;8.43;;;4.70;;
13933;SDS011;7039;52.168;9.866;2022-12-18T07:01:25;11.67;;;5.50;;
13933;SDS011;7039;52.168;9.866;2022-12-18T07:03:52;7.87;;;4.17;;
13933;SDS011;7039;52.168;9.866;2022-12-18T07:06:22;11.67;;;4.27;;
13933;SDS011;7039;52.168;9.866;2022-12-18T07:08:50;5.90;;;3.90;;
13933;SDS011;7039;52.168;9.866;2022-12-18T07:11:17;6.77;;;3.93;;
13933;SDS011;7039;52.168;9.866;2022-12-18T07:13:48;8.87;;;5.10;;
13933;SDS011;7039;52.168;9.866;2022-12-18T07:16:15;29.60;;;13.03;;
13933;SDS011;7039;52.168;9.866;2022-12-18T07:18:43;15.80;;;9.43;;
13933;SDS011;7039;52.168;9.866;2022-12-18T07:21:11;15.50;;;7.80;;
13933;SDS011;7039;52.168;9.866;2022-12-18T07:23:40;16.77;;;7.80;;
13933;SDS011;7039;52.168;9.866;2022-12-18T07:26:13;16.87;;;9.83;;
13933;SDS011;7039;52.168;9.866;2022-12-18T07:28:41;19.60;;;8.10;;
13933;SDS011;7039;52.168;9.866;2022-12-18T07:31:14;13.60;;;7.60;;
13933;SDS011;7039;52.168;9.866;2022-12-18T07:33:49;15.77;;;9.17;;
13933;SDS011;7039;52.168;9.866;2022-12-18T07:36:18;18.97;;;9.90;;
13933;SDS011;7039;52.168;9.866;2022-12-18T07:38:56;14.30;;;7.10;;
13933;SDS011;7039;52.168;9.866;2022-12-18T07:41:35;71.87;;;30.17;;
13933;SDS011;7039;52.168;9.866;2022-12-18T07:44:10;79.93;;;29.23;;
13933;SDS011;7039;52.168;9.866;2022-12-18T07:46:43;236.00;;;77.77;;
13933;SDS011;7039;52.168;9.866;2022-12-18T07:49:13;98.90;;;42.63;;
13933;SDS011;7039;52.168;9.866;2022-12-18T07:51:40;57.30;;;26.20;;
13933;SDS011;7039;52.168;9.866;2022-12-18T07:54:08;50.40;;;21.33;;
13933;SDS011;7039;52.168;9.866;2022-12-18T07:56:37;226.37;;;63.13;;
13933;SDS011;7039;52.168;9.866;2022-12-18T07:59:07;117.07;;;39.37;;
13933;SDS011;7039;52.168;9.866;2022-12-18T08:01:33;37.33;;;14.97;;
13933;SDS011;7039;52.168;9.866;2022-12-18T08:04:00;79.50;;;29.77;;
13933;SDS011;7039;52.168;9.866;2022-12-18T08:06:27;62.57;;;27.83;;
13933;SDS011;7039;52.168;9.866;2022-12-18T08:08:57;57.73;;;24.50;;
13933;SDS011;7039;52.168;9.866;2022-12-18T08:11:28;44.03;;;19.97;;
13933;SDS011;7039;52.168;9.866;2022-12-18T08:13:57;16.43;;;8.93;;
13933;SDS011;7039;52.168;9.866;2022-12-18T08:16:24;19.13;;;11.70;;
13933;SDS011;7039;52.168;9.866;2022-12-18T08:18:51;18.30;;;9.77;;
13933;SDS011;7039;52.168;9.866;2022-12-18T08:21:19;18.33;;;8.50;;
13933;SDS011;7039;52.168;9.866;2022-12-18T08:23:48;6.90;;;5.33;;
13933;SDS011;7039;52.168;9.866;2022-12-18T08:26:15;10.57;;;6.40;;
13933;SDS011;7039;52.168;9.866;2022-12-18T08:28:43;11.10;;;5.83;;
13933;SDS011;7039;52.168;9.866;2022-12-18T08:31:19;11.60;;;6.37;;
13933;SDS011;7039;52.168;9.866;2022-12-18T08:33:50;12.30;;;6.17;;
13933;SDS011;7039;52.168;9.866;2022-12-18T08:39:02;9.60;;;4.83;;
13933;SDS011;7039;52.168;9.866;2022-12-18T08:41:29;9.33;;;5.13;;
13933;SDS011;7039;52.168;9.866;2022-12-18T08:43:57;9.57;;;5.43;;
13933;SDS011;7039;52.168;9.866;2022-12-18T08:46:41;8.00;;;5.03;;
13933;SDS011;7039;52.168;9.866;2022-12-18T08:49:10;13.17;;;5.00;;
13933;SDS011;7039;52.168;9.866;2022-12-18T08:51:37;15.47;;;9.40;;
13933;SDS011;7039;52.168;9.866;2022-12-18T08:54:04;30.07;;;15.37;;
13933;SDS011;7039;52.168;9.866;2022-12-18T08:56:32;15.03;;;9.13;;
13933;SDS011;7039;52.168;9.866;2022-12-18T08:59:00;27.53;;;16.07;;
13933;SDS011;7039;52.168;9.866;2022-12-18T09:01:27;35.63;;;21.73;;
13933;SDS011;7039;52.168;9.866;2022-12-18T09:03:54;29.83;;;21.83;;
13933;SDS011;7039;52.168;9.866;2022-12-18T09:06:21;12.70;;;8.47;;
13933;SDS011;7039;52.168;9.866;2022-12-18T09:08:49;10.57;;;6.10;;
13933;SDS011;7039;52.168;9.866;2022-12-18T09:11:19;15.37;;;12.73;;
13933;SDS011;7039;52.168;9.866;2022-12-18T09:13:47;30.03;;;20.80;;
13933;SDS011;7039;52.168;9.866;2022-12-18T09:16:15;5.50;;;4.33;;
13933;SDS011;7039;52.168;9.866;2022-12-18T09:18:42;8.07;;;4.17;;
13933;SDS011;7039;52.168;9.866;2022-12-18T09:21:10;12.57;;;6.73;;
13933;SDS011;7039;52.168;9.866;2022-12-18T09:23:37;11.30;;;5.20;;
13933;SDS011;7039;52.168;9.866;2022-12-18T09:26:04;11.13;;;7.77;;
13933;SDS011;7039;52.168;9.866;2022-12-18T09:28:31;11.57;;;5.47;;
13933;SDS011;7039;52.168;9.866;2022-12-18T09:30:57;7.93;;;3.77;;
13933;SDS011;7039;52.168;9.866;2022-12-18T09:33:25;18.10;;;5.30;;
13933;SDS011;7039;52.168;9.866;2022-12-18T09:35:52;11.40;;;5.20;;
13933;SDS011;7039;52.168;9.866;2022-12-18T09:38:19;8.87;;;3.83;;
13933;SDS011;7039;52.168;9.866;2022-12-18T09:40:46;8.20;;;3.37;;
13933;SDS011;7039;52.168;9.866;2022-12-18T09:43:16;3.63;;;2.80;;
13933;SDS011;7039;52.168;9.866;2022-12-18T09:45:46;7.63;;;3.20;;
13933;SDS011;7039;52.168;9.866;2022-12-18T09:48:18;5.00;;;3.40;;
13933;SDS011;7039;52.168;9.866;2022-12-18T09:50:48;9.33;;;4.43;;
13933;SDS011;7039;52.168;9.866;2022-12-18T09:53:17;8.73;;;3.87;;
13933;SDS011;7039;52.168;9.866;2022-12-18T09:55:56;9.57;;;3.73;;
13933;SDS011;7039;52.168;9.866;2022-12-18T09:58:30;11.60;;;4.23;;
13933;SDS011;7039;52.168;9.866;2022-12-18T10:01:06;30.27;;;8.90;;
13933;SDS011;7039;52.168;9.866;2022-12-18T10:03:50;11.93;;;4.63;;
13933;SDS011;7039;52.168;9.866;2022-12-18T10:09:39;26.87;;;11.53;;
13933;SDS011;7039;52.168;9.866;2022-12-18T10:12:14;14.77;;;6.80;;
13933;SDS011;7039;52.168;9.866;2022-12-18T10:18:59;11.17;;;6.43;;
13933;SDS011;7039;52.168;9.866;2022-12-18T10:21:37;14.53;;;7.93;;
13933;SDS011;7039;52.168;9.866;2022-12-18T10:24:12;10.63;;;5.33;;
13933;SDS011;7039;52.168;9.866;2022-12-18T10:26:50;12.67;;;7.30;;
13933;SDS011;7039;52.168;9.866;2022-12-18T10:29:19;12.23;;;8.10;;
13933;SDS011;7039;52.168;9.866;2022-12-18T10:31:45;14.43;;;7.47;;
13933;SDS011;7039;52.168;9.866;2022-12-18T10:34:12;9.07;;;6.07;;
13933;SDS011;7039;52.168;9.866;2022-12-18T10:36:42;7.90;;;5.17;;
13933;SDS011;7039;52.168;9.866;2022-12-18T10:39:15;10.80;;;7.57;;
13933;SDS011;7039;52.168;9.866;2022-12-18T10:41:43;7.27;;;6.17;;
13933;SDS011;7039;52.168;9.866;2022-12-18T10:44:15;8.53;;;3.87;;
13933;SDS011;7039;52.168;9.866;2022-12-18T10:46:44;15.10;;;5.43;;
13933;SDS011;7039;52.168;9.866;2022-12-18T10:49:19;7.73;;;4.53;;
13933;SDS011;7039;52.168;9.866;2022-12-18T10:52:04;16.13;;;6.23;;
13933;SDS011;7039;52.168;9.866;2022-12-18T10:54:33;9.37;;;4.03;;
13933;SDS011;7039;52.168;9.866;2022-12-18T10:57:15;6.97;;;4.03;;
13933;SDS011;7039;52.168;9.866;2022-12-18T10:59:54;11.20;;;6.60;;
13933;SDS011;7039;52.168;9.866;2022-12-18T11:02:26;11.47;;;5.57;;
13933;SDS011;7039;52.168;9.866;2022-12-18T11:04:58;11.37;;;4.77;;
13933;SDS011;7039;52.168;9.866;2022-12-18T11:07:25;11.80;;;5.37;;
13933;SDS011;7039;52.168;9.866;2022-12-18T11:09:59;9.90;;;5.10;;
13933;SDS011;7039;52.168;9.866;2022-12-18T11:12:29;13.50;;;5.47;;
13933;SDS011;7039;52.168;9.866;2022-12-18T11:14:58;15.37;;;8.97;;
13933;SDS011;7039;52.168;9.866;2022-12-18T11:17:27;8.70;;;5.50;;
13933;SDS011;7039;52.168;9.866;2022-12-18T11:19:56;6.73;;;4.97;;
13933;SDS011;7039;52.168;9.866;2022-12-18T11:22:43;8.87;;;4.67;;
13933;SDS011;7039;52.168;9.866;2022-12-18T11:25:22;9.70;;;6.27;;
13933;SDS011;7039;52.168;9.866;2022-12-18T11:27:51;8.20;;;4.63;;
13933;SDS011;7039;52.168;9.866;2022-12-18T11:30:24;4.63;;;3.23;;
13933;SDS011;7039;52.168;9.866;2022-12-18T11:32:54;8.67;;;5.03;;
13933;SDS011;7039;52.168;9.866;2022-12-18T11:35:25;14.23;;;6.77;;
13933;SDS011;7039;52.168;9.866;2022-12-18T11:38:02;103.00;;;42.07;;
13933;SDS011;7039;52.168;9.866;2022-12-18T11:40:37;10.87;;;6.07;;
13933;SDS011;7039;52.168;9.866;2022-12-18T11:43:09;7.10;;;4.53;;
13933;SDS011;7039;52.168;9.866;2022-12-18T11:45:52;6.30;;;3.30;;
13933;SDS011;7039;52.168;9.866;2022-12-18T11:48:22;9.97;;;4.63;;
13933;SDS011;7039;52.168;9.866;2022-12-18T11:50:57;5.47;;;3.20;;
13933;SDS011;7039;52.168;9.866;2022-12-18T11:53:26;3.90;;;2.87;;
13933;SDS011;7039;52.168;9.866;2022-12-18T11:56:05;6.57;;;3.60;;
13933;SDS011;7039;52.168;9.866;2022-12-18T11:58:56;9.17;;;3.57;;
13933;SDS011;7039;52.168;9.866;2022-12-18T12:01:50;6.37;;;3.70;;
13933;SDS011;7039;52.168;9.866;2022-12-18T12:05:12;5.20;;;3.20;;
13933;SDS011;7039;52.168;9.866;2022-12-18T12:11:12;3.57;;;2.53;;
13933;SDS011;7039;52.168;9.866;2022-12-18T12:14:09;4.87;;;3.17;;
13933;SDS011;7039;52.168;9.866;2022-12-18T12:17:16;4.50;;;3.00;;
13933;SDS011;7039;52.168;9.866;2022-12-18T12:19:57;7.47;;;4.13;;
13933;SDS011;7039;52.168;9.866;2022-12-18T12:25:40;39.33;;;13.97;;
13933;SDS011;7039;52.168;9.866;2022-12-18T21:51:43;17.43;;;7.73;;
13933;SDS011;7039;52.168;9.866;2022-12-18T21:54:10;15.87;;;7.57;;
13933;SDS011;7039;52.168;9.866;2022-12-18T21:56:44;20.27;;;8.90;;
13933;SDS011;7039;52.168;9.866;2022-12-18T21:59:12;28.40;;;10.60;;
13933;SDS011;7039;52.168;9.866;2022-12-18T22:01:39;13.20;;;7.30;;
13933;SDS011;7039;52.168;9.866;2022-12-18T22:04:07;14.83;;;6.70;;
13933;SDS011;7039;52.168;9.866;2022-12-18T22:06:34;15.07;;;7.30;;
13933;SDS011;7039;52.168;9.866;2022-12-18T22:09:02;14.20;;;7.20;;
13933;SDS011;7039;52.168;9.866;2022-12-18T22:11:29;17.90;;;7.70;;
13933;SDS011;7039;52.168;9.866;2022-12-18T22:13:56;13.23;;;6.97;;
13933;SDS011;7039;52.168;9.866;2022-12-18T22:16:22;16.83;;;7.33;;
13933;SDS011;7039;52.168;9.866;2022-12-18T22:18:49;15.80;;;8.00;;
13933;SDS011;7039;52.168;9.866;2022-12-18T22:21:20;14.90;;;7.60;;
13933;SDS011;7039;52.168;9.866;2022-12-18T22:23:50;15.80;;;7.80;;
13933;SDS011;7039;52.168;9.866;2022-12-18T22:26:19;14.30;;;7.53;;
13933;SDS011;7039;52.168;9.866;2022-12-18T22:28:46;16.53;;;7.13;;
13933;SDS011;7039;52.168;9.866;2022-12-18T22:31:30;12.57;;;6.63;;
13933;SDS011;7039;52.168;9.866;2022-12-18T22:33:56;13.10;;;7.43;;
13933;SDS011;7039;52.168;9.866;2022-12-18T22:36:23;15.23;;;7.07;;
13933;SDS011;7039;52.168;9.866;2022-12-18T22:38:50;15.37;;;7.63;;
13933;SDS011;7039;52.168;9.866;2022-12-18T22:41:17;14.17;;;7.23;;
13933;SDS011;7039;52.168;9.866;2022-12-18T22:43:45;14.23;;;7.37;;
13933;SDS011;7039;52.168;9.866;2022-12-18T22:46:13;17.87;;;7.87;;
13933;SDS011;7039;52.168;9.866;2022-12-18T22:48:40;15.03;;;7.03;;
13933;SDS011;7039;52.168;9.866;2022-12-18T22:51:07;16.80;;;7.77;;
13933;SDS011;7039;52.168;9.866;2022-12-18T22:53:37;18.10;;;8.00;;
13933;SDS011;7039;52.168;9.866;2022-12-18T22:56:04;14.47;;;6.87;;
13933;SDS011;7039;52.168;9.866;2022-12-18T22:58:31;14.67;;;7.57;;
13933;SDS011;7039;52.168;9.866;2022-12-18T23:00:59;13.17;;;6.93;;
13933;SDS011;7039;52.168;9.866;2022-12-18T23:03:26;15.37;;;7.87;;
13933;SDS011;7039;52.168;9.866;2022-12-18T23:06:00;14.47;;;7.23;;
13933;SDS011;7039;52.168;9.866;2022-12-18T23:08:28;16.20;;;7.80;;
13933;SDS011;7039;52.168;9.866;2022-12-18T23:10:54;16.30;;;7.70;;
13933;SDS011;7039;52.168;9.866;2022-12-18T23:13:21;15.13;;;7.57;;
13933;SDS011;7039;52.168;9.866;2022-12-18T23:15:47;14.60;;;7.03;;
13933;SDS011;7039;52.168;9.866;2022-12-18T23:18:15;17.97;;;8.13;;
13933;SDS011;7039;52.168;9.866;2022-12-18T23:20:42;18.87;;;7.93;;
13933;SDS011;7039;52.168;9.866;2022-12-18T23:23:08;16.30;;;7.10;;
13933;SDS011;7039;52.168;9.866;2022-12-18T23:25:35;18.77;;;8.07;;
13933;SDS011;7039;52.168;9.866;2022-12-18T23:28:01;15.73;;;7.23;;
13933;SDS011;7039;52.168;9.866;2022-12-18T23:30:28;15.83;;;7.43;;
13933;SDS011;7039;52.168;9.866;2022-12-18T23:32:55;16.40;;;7.07;;
13933;SDS011;7039;52.168;9.866;2022-12-18T23:35:23;17.07;;;8.13;;
13933;SDS011;7039;52.168;9.866;2022-12-18T23:37:49;17.77;;;7.70;;
13933;SDS011;7039;52.168;9.866;2022-12-18T23:40:16;17.60;;;7.73;;
13933;SDS011;7039;52.168;9.866;2022-12-18T23:42:42;17.67;;;7.67;;
13933;SDS011;7039;52.168;9.866;2022-12-18T23:45:09;16.03;;;7.33;;
13933;SDS011;7039;52.168;9.866;2022-12-18T23:47:36;15.30;;;7.97;;
13933;SDS011;7039;52.168;9.866;2022-12-18T23:50:03;17.27;;;7.90;;
13933;SDS011;7039;52.168;9.866;2022-12-18T23:52:31;15.40;;;7.70;;
13933;SDS011;7039;52.168;9.866;2022-12-18T23:54:58;14.30;;;7.30;;
13933;SDS011;7039;52.168;9.866;2022-12-18T23:57:24;15.67;;;7.47;;
13933;SDS011;7039;52.168;9.866;2022-12-18T23:59:51;18.60;;;8.90;;
